Weather History for KCOE - September, 2013

Change the Weather History Date:

Wednesday, September 11, 2013

  Actual Average Record
Temperature  
Mean Temperature 76 °F -  
Max Temperature 89 °F 71 °F 91 °F (2011)
Min Temperature 62 °F 45 °F 33 °F (2012)
Cooling Degree Days 10    
Growing Degree Days 26 (Base 50)    
Moisture  
Dew Point 53 °F    
Average Humidity 51    
Maximum Humidity 73    
Minimum Humidity 27    
Precipitation  
Precipitation 0.00 in - - ()
Sea Level Pressure  
Sea Level Pressure 30.07 in    
Wind  
Wind Speed 14 mph (NNE)    
Max Wind Speed 21 mph    
Max Gust Speed 26 mph    
Visibility 10 miles    
Events      
Averages and records for this station are not official NWS values.
T = Trace of Precipitation, MM = Missing Value Source: NWS Daily Summary

Daily Weather History Graph

Daily Weather History Graph

Search for Another Location

Airport or City:

Trip Planner

Search our weather history database for the weather conditions in past years. The results will help you decide how hot, cold, wet, or windy it might be!

Date:

Astronomy

Sep. 11, 2013 Rise Set
Actual Time 6:19 AM PDT 7:07 PM PDT
Civil Twilight 5:48 AM PDT 7:38 PM PDT
Nautical Twilight 5:10 AM PDT 8:15 PM PDT
Astronomical Twilight 4:31 AM PDT 8:54 PM PDT
Moon 1:20 PM PDT (9/11) 10:38 PM PDT (9/11)
Length of Visible Light 13h 49m
Length of Day
12h 47m
Waxing Crescent, 40% of the Moon is Illuminated
Sep 11
Waxing Crescent
Sep 12
First Quarter
Sep 19
Full
Sep 26
Last Quarter
Oct 4
New

Hourly Weather History & Observations

Time (PDT) Temp. Heat Index Dew Point Humidity Pressure Visibility Wind Dir Wind Speed Gust Speed Precip Events Conditions
12:15 AM 62.6 °F - 51.8 °F 68% 30.05 in 10.0 mi ENE 5.8 mph - N/A   Clear
12:35 AM 64.4 °F - 53.6 °F 68% 30.05 in 10.0 mi NNE 15.0 mph - N/A   Clear
12:55 AM 64.4 °F - 53.6 °F 68% 30.05 in 10.0 mi NE 12.7 mph - N/A   Clear
1:15 AM 64.4 °F - 53.6 °F 68% 30.06 in 10.0 mi NNE 13.8 mph - N/A   Clear
1:35 AM 64.4 °F - 51.8 °F 64% 30.06 in 10.0 mi NNE 13.8 mph - N/A   Clear
1:55 AM 64.4 °F - 51.8 °F 64% 30.06 in 10.0 mi NNE 13.8 mph - N/A   Clear
2:15 AM 64.4 °F - 51.8 °F 64% 30.06 in 10.0 mi NNE 15.0 mph - N/A   Clear
2:35 AM 64.4 °F - 51.8 °F 64% 30.06 in 10.0 mi NNE 13.8 mph - N/A   Clear
2:55 AM 64.4 °F - 53.6 °F 68% 30.06 in 10.0 mi NNE 15.0 mph - N/A   Clear
3:15 AM 64.4 °F - 51.8 °F 64% 30.06 in 10.0 mi NNE 15.0 mph - N/A   Clear
3:35 AM 64.4 °F - 51.8 °F 64% 30.07 in 10.0 mi NNE 16.1 mph 20.7 mph N/A   Clear
3:55 AM 64.4 °F - 51.8 °F 64% 30.07 in 10.0 mi NNE 17.3 mph - N/A   Clear
4:15 AM 62.6 °F - 51.8 °F 68% 30.07 in 10.0 mi NNE 15.0 mph - N/A   Clear
4:35 AM 62.6 °F - 51.8 °F 68% 30.07 in 10.0 mi NNE 15.0 mph - N/A   Clear
4:55 AM 62.6 °F - 51.8 °F 68% 30.08 in 10.0 mi NNE 15.0 mph 20.7 mph N/A   Clear
5:15 AM 62.6 °F - 51.8 °F 68% 30.08 in 10.0 mi NNE 13.8 mph 20.7 mph N/A   Clear
5:35 AM 62.6 °F - 51.8 °F 68% 30.08 in 10.0 mi NNE 13.8 mph - N/A   Clear
5:55 AM 62.6 °F - 51.8 °F 68% 30.09 in 10.0 mi NNE 16.1 mph 21.9 mph N/A   Clear
6:15 AM 62.6 °F - 51.8 °F 68% 30.09 in 10.0 mi NNE 16.1 mph 23.0 mph N/A   Clear
6:35 AM 62.6 °F - 51.8 °F 68% 30.09 in 10.0 mi NNE 17.3 mph - N/A   Clear
6:55 AM 62.6 °F - 51.8 °F 68% 30.10 in 10.0 mi NNE 16.1 mph - N/A   Clear
7:15 AM 62.6 °F - 53.6 °F 72% 30.10 in 10.0 mi NNE 18.4 mph 23.0 mph N/A   Clear
7:35 AM 64.4 °F - 53.6 °F 68% 30.11 in 10.0 mi NNE 17.3 mph 24.2 mph N/A   Clear
7:55 AM 64.4 °F - 53.6 °F 68% 30.11 in 10.0 mi NNE 20.7 mph - N/A   Clear
8:15 AM 66.2 °F - 53.6 °F 64% 30.11 in 10.0 mi NNE 20.7 mph - N/A   Clear
8:35 AM 66.2 °F - 57.2 °F 73% 30.12 in 10.0 mi NNE 19.6 mph 25.3 mph N/A   Clear
8:55 AM 68.0 °F - 53.6 °F 60% 30.12 in 10.0 mi NNE 18.4 mph 25.3 mph N/A   Clear
9:15 AM 69.8 °F - 53.6 °F 56% 30.12 in 10.0 mi NNE 16.1 mph 24.2 mph N/A   Clear
9:35 AM 71.6 °F - 55.4 °F 57% 30.12 in 10.0 mi NNE 19.6 mph - N/A   Clear
9:55 AM 73.4 °F - 55.4 °F 53% 30.12 in 10.0 mi NNE 19.6 mph 26.5 mph N/A   Clear
10:15 AM 73.4 °F - 55.4 °F 53% 30.12 in 10.0 mi NNE 19.6 mph - N/A   Clear
10:35 AM 75.2 °F - 55.4 °F 50% 30.11 in 10.0 mi NNE 17.3 mph - N/A   Clear
10:55 AM 77.0 °F - 55.4 °F 47% 30.11 in 10.0 mi NNE 17.3 mph - N/A   Clear
11:15 AM 78.8 °F - 55.4 °F 44% 30.11 in 10.0 mi NE 17.3 mph - N/A   Clear
11:35 AM 78.8 °F - 55.4 °F 44% 30.11 in 10.0 mi NNE 17.3 mph 23.0 mph N/A   Clear
11:55 AM 80.6 °F 80.5 °F 55.4 °F 42% 30.10 in 10.0 mi NNE 18.4 mph - N/A   Clear
12:15 PM 82.4 °F 81.7 °F 55.4 °F 39% 30.10 in 10.0 mi NNE 15.0 mph - N/A   Clear
12:35 PM 82.4 °F 81.7 °F 55.4 °F 39% 30.09 in 10.0 mi NNE 15.0 mph - N/A   Clear
12:55 PM 84.2 °F 83.0 °F 55.4 °F 37% 30.09 in 10.0 mi NNE 13.8 mph - N/A   Clear
1:15 PM 86.0 °F 84.5 °F 55.4 °F 35% 30.08 in 10.0 mi NNE 12.7 mph - N/A   Clear
1:35 PM 87.8 °F 86.1 °F 55.4 °F 33% 30.08 in 10.0 mi NNE 15.0 mph - N/A   Clear
1:55 PM 87.8 °F 86.1 °F 55.4 °F 33% 30.07 in 10.0 mi NNE 13.8 mph - N/A   Clear
2:15 PM 87.8 °F 86.1 °F 55.4 °F 33% 30.07 in 10.0 mi NNE 15.0 mph - N/A   Clear
2:35 PM 89.6 °F 87.7 °F 55.4 °F 31% 30.06 in 10.0 mi NNE 16.1 mph 19.6 mph N/A   Clear
2:55 PM 89.6 °F 87.7 °F 55.4 °F 31% 30.06 in 10.0 mi NNE 16.1 mph - N/A   Clear
3:15 PM 89.6 °F 87.3 °F 53.6 °F 29% 30.05 in 10.0 mi NNE 13.8 mph 18.4 mph N/A   Clear
3:35 PM 89.6 °F 87.3 °F 53.6 °F 29% 30.04 in 10.0 mi NNE 15.0 mph - N/A   Clear
3:55 PM 89.6 °F 87.3 °F 53.6 °F 29% 30.04 in 10.0 mi NNE 15.0 mph 19.6 mph N/A   Clear
4:15 PM 89.6 °F - 51.8 °F 27% 30.04 in 10.0 mi NNE 15.0 mph - N/A   Clear
4:35 PM 89.6 °F - 51.8 °F 27% 30.03 in 10.0 mi NNE 17.3 mph - N/A   Clear
4:55 PM 89.6 °F - 51.8 °F 27% 30.03 in 10.0 mi NNE 17.3 mph 20.7 mph N/A   Clear
5:15 PM 87.8 °F - 51.8 °F 29% 30.03 in 10.0 mi NNE 17.3 mph - N/A   Clear
5:35 PM 87.8 °F - 51.8 °F 29% 30.02 in 10.0 mi NNE 16.1 mph 23.0 mph N/A   Clear
5:55 PM 86.0 °F - 51.8 °F 31% 30.02 in 10.0 mi NNE 16.1 mph - N/A   Clear
6:15 PM 84.2 °F - 51.8 °F 33% 30.02 in 10.0 mi NNE 17.3 mph 21.9 mph N/A   Clear
6:35 PM 84.2 °F - 51.8 °F 33% 30.02 in 10.0 mi NNE 13.8 mph - N/A   Clear
6:55 PM 82.4 °F - 51.8 °F 35% 30.02 in 10.0 mi NNE 15.0 mph - N/A   Clear
7:15 PM 80.6 °F - 51.8 °F 37% 30.03 in 10.0 mi NNE 12.7 mph - N/A   Clear
7:35 PM 75.2 °F - 51.8 °F 44% 30.03 in 10.0 mi NNE 10.4 mph - N/A   Clear
7:55 PM 75.2 °F - 51.8 °F 44% 30.03 in 10.0 mi NNE 12.7 mph - N/A   Clear
8:15 PM 75.2 °F - 51.8 °F 44% 30.03 in 10.0 mi East 6.9 mph - N/A   Clear
8:35 PM 71.6 °F - 51.8 °F 50% 30.04 in 10.0 mi ENE 8.1 mph - N/A   Clear
8:55 PM 69.8 °F - 51.8 °F 53% 30.04 in 10.0 mi NE 8.1 mph - N/A   Clear
9:15 PM 71.6 °F - 51.8 °F 50% 30.04 in 10.0 mi NNE 12.7 mph - N/A   Clear
9:35 PM 71.6 °F - 51.8 °F 50% 30.04 in 10.0 mi NNE 12.7 mph - N/A   Clear
9:55 PM 71.6 °F - 51.8 °F 50% 30.04 in 10.0 mi NNE 13.8 mph - N/A   Clear
10:15 PM 71.6 °F - 51.8 °F 50% 30.04 in 10.0 mi NNE 12.7 mph - N/A   Clear
10:35 PM 71.6 °F - 51.8 °F 50% 30.04 in 10.0 mi NNE 12.7 mph - N/A   Clear
10:55 PM 69.8 °F - 51.8 °F 53% 30.05 in 10.0 mi NNE 10.4 mph - N/A   Clear
11:15 PM 69.8 °F - 51.8 °F 53% 30.05 in 10.0 mi NNE 11.5 mph - N/A   Clear
11:35 PM 69.8 °F - 51.8 °F 53% 30.04 in 10.0 mi NNE 11.5 mph - N/A   Clear
11:55 PM 68.0 °F - 51.8 °F 56% 30.05 in 10.0 mi NNE 10.4 mph - N/A   Clear